sensor_id;sensor_type;location;lat;lon;timestamp;temperature;humidity
26053;DHT22;13826;51.186;4.450;2023-02-22T00:00:09;6.70;99.90
26053;DHT22;13826;51.186;4.450;2023-02-22T00:02:47;6.80;99.90
26053;DHT22;13826;51.186;4.450;2023-02-22T00:05:14;7.00;99.90
26053;DHT22;13826;51.186;4.450;2023-02-22T00:07:41;7.10;99.90
26053;DHT22;13826;51.186;4.450;2023-02-22T00:10:09;7.30;99.90
26053;DHT22;13826;51.186;4.450;2023-02-22T00:12:41;7.50;99.90
26053;DHT22;13826;51.186;4.450;2023-02-22T00:15:07;7.60;99.90
26053;DHT22;13826;51.186;4.450;2023-02-22T00:17:33;7.50;99.90
26053;DHT22;13826;51.186;4.450;2023-02-22T00:19:58;7.40;99.90
26053;DHT22;13826;51.186;4.450;2023-02-22T00:22:24;7.50;99.90
26053;DHT22;13826;51.186;4.450;2023-02-22T00:24:49;7.50;99.90
26053;DHT22;13826;51.186;4.450;2023-02-22T00:27:15;7.40;99.90
26053;DHT22;13826;51.186;4.450;2023-02-22T00:29:44;7.30;99.90
26053;DHT22;13826;51.186;4.450;2023-02-22T00:32:10;7.20;99.90
26053;DHT22;13826;51.186;4.450;2023-02-22T00:34:36;7.00;99.90
26053;DHT22;13826;51.186;4.450;2023-02-22T00:37:01;6.90;99.90
26053;DHT22;13826;51.186;4.450;2023-02-22T00:39:29;6.90;99.90
26053;DHT22;13826;51.186;4.450;2023-02-22T00:41:54;7.00;99.90
26053;DHT22;13826;51.186;4.450;2023-02-22T00:44:20;6.80;99.90
26053;DHT22;13826;51.186;4.450;2023-02-22T00:46:46;6.60;99.90
26053;DHT22;13826;51.186;4.450;2023-02-22T00:49:12;6.50;99.90
26053;DHT22;13826;51.186;4.450;2023-02-22T00:51:37;6.40;99.90
26053;DHT22;13826;51.186;4.450;2023-02-22T00:54:03;6.50;99.90
26053;DHT22;13826;51.186;4.450;2023-02-22T00:56:31;6.60;99.90
26053;DHT22;13826;51.186;4.450;2023-02-22T00:58:58;6.70;99.90
26053;DHT22;13826;51.186;4.450;2023-02-22T01:01:25;6.60;99.90
26053;DHT22;13826;51.186;4.450;2023-02-22T01:03:51;6.50;99.90
26053;DHT22;13826;51.186;4.450;2023-02-22T01:06:17;6.50;99.90
26053;DHT22;13826;51.186;4.450;2023-02-22T01:08:43;6.40;99.90
26053;DHT22;13826;51.186;4.450;2023-02-22T01:11:09;6.50;99.90
26053;DHT22;13826;51.186;4.450;2023-02-22T01:13:34;6.50;99.90
26053;DHT22;13826;51.186;4.450;2023-02-22T01:16:00;6.70;99.90
26053;DHT22;13826;51.186;4.450;2023-02-22T01:18:25;6.70;99.90
26053;DHT22;13826;51.186;4.450;2023-02-22T01:20:51;6.80;99.90
26053;DHT22;13826;51.186;4.450;2023-02-22T01:23:17;6.90;99.90
26053;DHT22;13826;51.186;4.450;2023-02-22T01:25:42;6.90;99.90
26053;DHT22;13826;51.186;4.450;2023-02-22T01:28:08;6.90;99.90
26053;DHT22;13826;51.186;4.450;2023-02-22T01:30:34;7.10;99.90
26053;DHT22;13826;51.186;4.450;2023-02-22T01:33:00;7.10;99.90
26053;DHT22;13826;51.186;4.450;2023-02-22T01:35:27;6.70;99.90
26053;DHT22;13826;51.186;4.450;2023-02-22T01:37:54;6.50;99.90
26053;DHT22;13826;51.186;4.450;2023-02-22T01:40:22;6.70;99.90
26053;DHT22;13826;51.186;4.450;2023-02-22T01:42:52;6.60;99.90
26053;DHT22;13826;51.186;4.450;2023-02-22T01:50:24;6.60;99.90
26053;DHT22;13826;51.186;4.450;2023-02-22T01:52:51;6.70;99.90
26053;DHT22;13826;51.186;4.450;2023-02-22T01:55:16;6.50;99.90
26053;DHT22;13826;51.186;4.450;2023-02-22T01:57:42;6.50;99.90
26053;DHT22;13826;51.186;4.450;2023-02-22T02:00:09;6.60;99.90
26053;DHT22;13826;51.186;4.450;2023-02-22T02:02:36;6.50;99.90
26053;DHT22;13826;51.186;4.450;2023-02-22T02:05:01;6.40;99.90
26053;DHT22;13826;51.186;4.450;2023-02-22T02:07:33;6.50;99.90
26053;DHT22;13826;51.186;4.450;2023-02-22T02:10:00;6.70;99.90
26053;DHT22;13826;51.186;4.450;2023-02-22T02:12:26;6.80;99.90
26053;DHT22;13826;51.186;4.450;2023-02-22T02:15:14;6.80;99.90
26053;DHT22;13826;51.186;4.450;2023-02-22T02:17:39;6.80;99.90
26053;DHT22;13826;51.186;4.450;2023-02-22T02:20:26;6.60;99.90
26053;DHT22;13826;51.186;4.450;2023-02-22T02:23:17;6.50;99.90
26053;DHT22;13826;51.186;4.450;2023-02-22T02:30:44;6.40;99.90
26053;DHT22;13826;51.186;4.450;2023-02-22T02:40:53;6.10;99.90
26053;DHT22;13826;51.186;4.450;2023-02-22T02:43:21;6.00;99.90
26053;DHT22;13826;51.186;4.450;2023-02-22T02:48:16;6.00;99.90
26053;DHT22;13826;51.186;4.450;2023-02-22T02:50:46;6.00;99.90
26053;DHT22;13826;51.186;4.450;2023-02-22T02:53:12;6.10;99.90
26053;DHT22;13826;51.186;4.450;2023-02-22T02:55:41;6.20;99.90
26053;DHT22;13826;51.186;4.450;2023-02-22T02:58:07;6.40;99.90
26053;DHT22;13826;51.186;4.450;2023-02-22T03:00:34;6.50;99.90
26053;DHT22;13826;51.186;4.450;2023-02-22T03:08:27;6.00;99.90
26053;DHT22;13826;51.186;4.450;2023-02-22T03:11:08;5.90;99.90
26053;DHT22;13826;51.186;4.450;2023-02-22T03:13:41;5.90;99.90
26053;DHT22;13826;51.186;4.450;2023-02-22T03:16:13;5.80;99.90
26053;DHT22;13826;51.186;4.450;2023-02-22T03:23:33;5.90;99.90
26053;DHT22;13826;51.186;4.450;2023-02-22T03:26:13;5.90;99.90
26053;DHT22;13826;51.186;4.450;2023-02-22T03:28:39;5.90;99.90
26053;DHT22;13826;51.186;4.450;2023-02-22T03:31:13;5.90;99.90
26053;DHT22;13826;51.186;4.450;2023-02-22T03:33:41;5.90;99.90
26053;DHT22;13826;51.186;4.450;2023-02-22T03:36:12;5.70;99.90
26053;DHT22;13826;51.186;4.450;2023-02-22T03:38:40;5.60;99.90
26053;DHT22;13826;51.186;4.450;2023-02-22T03:41:06;5.70;99.90
26053;DHT22;13826;51.186;4.450;2023-02-22T03:43:44;5.70;99.90
26053;DHT22;13826;51.186;4.450;2023-02-22T03:46:11;5.90;99.90
26053;DHT22;13826;51.186;4.450;2023-02-22T03:51:15;6.00;99.90
26053;DHT22;13826;51.186;4.450;2023-02-22T03:53:41;5.70;99.90
26053;DHT22;13826;51.186;4.450;2023-02-22T03:56:09;5.90;99.90
26053;DHT22;13826;51.186;4.450;2023-02-22T03:58:36;5.80;99.90
26053;DHT22;13826;51.186;4.450;2023-02-22T04:01:02;6.00;99.90
26053;DHT22;13826;51.186;4.450;2023-02-22T04:03:28;5.80;99.90
26053;DHT22;13826;51.186;4.450;2023-02-22T04:05:53;5.60;99.90
26053;DHT22;13826;51.186;4.450;2023-02-22T04:08:19;5.60;99.90
26053;DHT22;13826;51.186;4.450;2023-02-22T04:10:44;5.60;99.90
26053;DHT22;13826;51.186;4.450;2023-02-22T04:13:10;5.70;99.90
26053;DHT22;13826;51.186;4.450;2023-02-22T04:15:36;5.70;99.90
26053;DHT22;13826;51.186;4.450;2023-02-22T04:18:01;5.60;99.90
26053;DHT22;13826;51.186;4.450;2023-02-22T04:20:27;5.60;99.90
26053;DHT22;13826;51.186;4.450;2023-02-22T04:22:53;5.50;99.90
26053;DHT22;13826;51.186;4.450;2023-02-22T04:25:19;5.70;99.90
26053;DHT22;13826;51.186;4.450;2023-02-22T04:27:44;5.70;99.90
26053;DHT22;13826;51.186;4.450;2023-02-22T04:30:10;5.60;99.90
26053;DHT22;13826;51.186;4.450;2023-02-22T04:32:36;5.80;99.90
26053;DHT22;13826;51.186;4.450;2023-02-22T04:35:02;6.00;99.90
26053;DHT22;13826;51.186;4.450;2023-02-22T04:37:28;6.00;99.90
26053;DHT22;13826;51.186;4.450;2023-02-22T04:39:53;5.80;99.90
26053;DHT22;13826;51.186;4.450;2023-02-22T04:42:19;5.70;99.90
26053;DHT22;13826;51.186;4.450;2023-02-22T04:44:44;5.60;99.90
26053;DHT22;13826;51.186;4.450;2023-02-22T04:47:10;5.70;99.90
26053;DHT22;13826;51.186;4.450;2023-02-22T04:49:35;5.70;99.90
26053;DHT22;13826;51.186;4.450;2023-02-22T04:52:01;5.50;99.90
26053;DHT22;13826;51.186;4.450;2023-02-22T04:54:26;5.50;99.90
26053;DHT22;13826;51.186;4.450;2023-02-22T04:56:52;5.60;99.90
26053;DHT22;13826;51.186;4.450;2023-02-22T04:59:18;5.70;99.90
26053;DHT22;13826;51.186;4.450;2023-02-22T05:01:44;5.50;99.90
26053;DHT22;13826;51.186;4.450;2023-02-22T05:04:09;5.40;99.90
26053;DHT22;13826;51.186;4.450;2023-02-22T05:06:35;5.40;99.90
26053;DHT22;13826;51.186;4.450;2023-02-22T05:09:00;5.50;99.90
26053;DHT22;13826;51.186;4.450;2023-02-22T05:11:26;5.60;99.90
26053;DHT22;13826;51.186;4.450;2023-02-22T05:13:52;5.60;99.90
26053;DHT22;13826;51.186;4.450;2023-02-22T05:16:17;5.70;99.90
26053;DHT22;13826;51.186;4.450;2023-02-22T05:18:43;5.60;99.90
26053;DHT22;13826;51.186;4.450;2023-02-22T05:21:09;5.50;99.90
26053;DHT22;13826;51.186;4.450;2023-02-22T05:23:38;5.50;99.90
26053;DHT22;13826;51.186;4.450;2023-02-22T05:26:03;5.80;99.90
26053;DHT22;13826;51.186;4.450;2023-02-22T05:28:31;5.80;99.90
26053;DHT22;13826;51.186;4.450;2023-02-22T05:30:56;5.80;99.90
26053;DHT22;13826;51.186;4.450;2023-02-22T05:33:22;5.90;99.90
26053;DHT22;13826;51.186;4.450;2023-02-22T05:35:47;5.80;99.90
26053;DHT22;13826;51.186;4.450;2023-02-22T05:38:14;5.50;99.90
26053;DHT22;13826;51.186;4.450;2023-02-22T05:40:40;5.50;99.90
26053;DHT22;13826;51.186;4.450;2023-02-22T05:43:06;5.50;99.90
26053;DHT22;13826;51.186;4.450;2023-02-22T05:45:32;5.40;99.90
26053;DHT22;13826;51.186;4.450;2023-02-22T05:47:57;5.40;99.90
26053;DHT22;13826;51.186;4.450;2023-02-22T05:50:23;5.60;99.90
26053;DHT22;13826;51.186;4.450;2023-02-22T05:52:48;5.60;99.90
26053;DHT22;13826;51.186;4.450;2023-02-22T05:55:15;5.50;99.90
26053;DHT22;13826;51.186;4.450;2023-02-22T05:57:41;5.50;99.90
26053;DHT22;13826;51.186;4.450;2023-02-22T06:00:07;5.50;99.90
26053;DHT22;13826;51.186;4.450;2023-02-22T06:02:33;5.50;99.90
26053;DHT22;13826;51.186;4.450;2023-02-22T06:04:58;5.40;99.90
26053;DHT22;13826;51.186;4.450;2023-02-22T06:07:24;5.50;99.90
26053;DHT22;13826;51.186;4.450;2023-02-22T06:09:49;5.60;99.90
26053;DHT22;13826;51.186;4.450;2023-02-22T06:12:15;5.70;99.90
26053;DHT22;13826;51.186;4.450;2023-02-22T06:14:41;5.70;99.90
26053;DHT22;13826;51.186;4.450;2023-02-22T06:17:10;5.60;99.90
26053;DHT22;13826;51.186;4.450;2023-02-22T06:19:36;5.60;99.90
26053;DHT22;13826;51.186;4.450;2023-02-22T06:22:02;5.70;99.90
26053;DHT22;13826;51.186;4.450;2023-02-22T06:24:27;5.70;99.90
26053;DHT22;13826;51.186;4.450;2023-02-22T06:26:56;5.60;99.90
26053;DHT22;13826;51.186;4.450;2023-02-22T06:29:23;5.60;99.90
26053;DHT22;13826;51.186;4.450;2023-02-22T06:31:49;5.50;99.90
26053;DHT22;13826;51.186;4.450;2023-02-22T06:34:14;5.60;99.90
26053;DHT22;13826;51.186;4.450;2023-02-22T06:36:40;5.80;99.90
26053;DHT22;13826;51.186;4.450;2023-02-22T06:39:06;5.70;99.90
26053;DHT22;13826;51.186;4.450;2023-02-22T06:41:41;5.50;99.90
26053;DHT22;13826;51.186;4.450;2023-02-22T06:44:08;5.50;99.90
26053;DHT22;13826;51.186;4.450;2023-02-22T06:46:35;5.50;99.90
26053;DHT22;13826;51.186;4.450;2023-02-22T06:49:04;5.50;99.90
26053;DHT22;13826;51.186;4.450;2023-02-22T06:51:30;5.30;99.90
26053;DHT22;13826;51.186;4.450;2023-02-22T06:54:00;5.30;99.90
26053;DHT22;13826;51.186;4.450;2023-02-22T06:56:26;5.30;99.90
26053;DHT22;13826;51.186;4.450;2023-02-22T06:58:54;5.30;99.90
26053;DHT22;13826;51.186;4.450;2023-02-22T07:01:20;5.30;99.90
26053;DHT22;13826;51.186;4.450;2023-02-22T07:03:47;5.20;99.90
26053;DHT22;13826;51.186;4.450;2023-02-22T07:06:13;5.30;99.90
26053;DHT22;13826;51.186;4.450;2023-02-22T07:08:38;5.60;99.90
26053;DHT22;13826;51.186;4.450;2023-02-22T07:11:04;5.60;99.90
26053;DHT22;13826;51.186;4.450;2023-02-22T07:13:29;5.70;99.90
26053;DHT22;13826;51.186;4.450;2023-02-22T07:15:55;5.80;99.90
26053;DHT22;13826;51.186;4.450;2023-02-22T07:18:20;6.00;99.90
26053;DHT22;13826;51.186;4.450;2023-02-22T07:20:46;5.80;99.90
26053;DHT22;13826;51.186;4.450;2023-02-22T07:23:15;5.80;99.90
26053;DHT22;13826;51.186;4.450;2023-02-22T07:25:40;5.90;99.90
26053;DHT22;13826;51.186;4.450;2023-02-22T07:28:06;5.90;99.90
26053;DHT22;13826;51.186;4.450;2023-02-22T07:30:32;5.90;99.90
26053;DHT22;13826;51.186;4.450;2023-02-22T07:32:59;6.00;99.90
26053;DHT22;13826;51.186;4.450;2023-02-22T07:35:26;6.30;99.90
26053;DHT22;13826;51.186;4.450;2023-02-22T07:37:52;6.40;99.90
26053;DHT22;13826;51.186;4.450;2023-02-22T07:40:18;6.40;99.90
26053;DHT22;13826;51.186;4.450;2023-02-22T07:43:00;6.20;99.90
26053;DHT22;13826;51.186;4.450;2023-02-22T07:45:27;6.10;99.90
26053;DHT22;13826;51.186;4.450;2023-02-22T07:47:53;6.00;99.90
26053;DHT22;13826;51.186;4.450;2023-02-22T07:50:20;5.90;99.90
26053;DHT22;13826;51.186;4.450;2023-02-22T07:52:46;6.10;99.90
26053;DHT22;13826;51.186;4.450;2023-02-22T07:55:13;6.50;99.90
26053;DHT22;13826;51.186;4.450;2023-02-22T07:57:39;6.60;99.90
26053;DHT22;13826;51.186;4.450;2023-02-22T08:00:05;6.80;99.90
26053;DHT22;13826;51.186;4.450;2023-02-22T08:02:31;6.90;99.90
26053;DHT22;13826;51.186;4.450;2023-02-22T08:04:56;6.90;99.90
26053;DHT22;13826;51.186;4.450;2023-02-22T08:07:22;6.80;99.90
26053;DHT22;13826;51.186;4.450;2023-02-22T08:09:48;6.80;99.90
26053;DHT22;13826;51.186;4.450;2023-02-22T08:12:13;6.70;99.90
26053;DHT22;13826;51.186;4.450;2023-02-22T08:14:39;6.80;99.90
26053;DHT22;13826;51.186;4.450;2023-02-22T08:17:04;7.00;99.90
26053;DHT22;13826;51.186;4.450;2023-02-22T08:19:30;7.00;99.90
26053;DHT22;13826;51.186;4.450;2023-02-22T08:21:55;7.10;99.90
26053;DHT22;13826;51.186;4.450;2023-02-22T08:24:21;7.30;99.90
26053;DHT22;13826;51.186;4.450;2023-02-22T08:26:47;7.30;99.90
26053;DHT22;13826;51.186;4.450;2023-02-22T08:29:12;7.50;99.90
26053;DHT22;13826;51.186;4.450;2023-02-22T08:31:39;7.50;99.90
26053;DHT22;13826;51.186;4.450;2023-02-22T08:34:04;7.40;99.90
26053;DHT22;13826;51.186;4.450;2023-02-22T08:36:30;7.40;99.90
26053;DHT22;13826;51.186;4.450;2023-02-22T08:38:57;7.40;99.90
26053;DHT22;13826;51.186;4.450;2023-02-22T08:41:22;7.50;99.90
26053;DHT22;13826;51.186;4.450;2023-02-22T08:43:48;7.20;99.90
26053;DHT22;13826;51.186;4.450;2023-02-22T08:46:15;7.20;99.90
26053;DHT22;13826;51.186;4.450;2023-02-22T08:48:48;7.50;99.90
26053;DHT22;13826;51.186;4.450;2023-02-22T08:51:13;7.50;99.90
26053;DHT22;13826;51.186;4.450;2023-02-22T08:53:39;7.70;99.90
26053;DHT22;13826;51.186;4.450;2023-02-22T08:56:05;7.60;99.90
26053;DHT22;13826;51.186;4.450;2023-02-22T08:58:30;7.40;99.90
26053;DHT22;13826;51.186;4.450;2023-02-22T09:00:56;7.60;99.90
26053;DHT22;13826;51.186;4.450;2023-02-22T09:03:22;7.60;99.90
26053;DHT22;13826;51.186;4.450;2023-02-22T09:05:47;7.80;99.90
26053;DHT22;13826;51.186;4.450;2023-02-22T09:08:15;7.70;99.90
26053;DHT22;13826;51.186;4.450;2023-02-22T09:10:41;7.50;99.90
26053;DHT22;13826;51.186;4.450;2023-02-22T09:13:07;7.60;99.90
26053;DHT22;13826;51.186;4.450;2023-02-22T09:15:32;7.80;99.90
26053;DHT22;13826;51.186;4.450;2023-02-22T09:18:00;8.00;99.90
26053;DHT22;13826;51.186;4.450;2023-02-22T09:20:26;8.00;99.90
26053;DHT22;13826;51.186;4.450;2023-02-22T09:22:52;8.20;99.90
26053;DHT22;13826;51.186;4.450;2023-02-22T09:25:18;8.20;99.90
26053;DHT22;13826;51.186;4.450;2023-02-22T09:27:47;8.30;99.90
26053;DHT22;13826;51.186;4.450;2023-02-22T09:30:17;8.40;99.90
26053;DHT22;13826;51.186;4.450;2023-02-22T09:32:44;8.50;99.90
26053;DHT22;13826;51.186;4.450;2023-02-22T09:35:10;8.60;99.90
26053;DHT22;13826;51.186;4.450;2023-02-22T09:37:35;8.60;99.90
26053;DHT22;13826;51.186;4.450;2023-02-22T09:40:01;8.60;99.90
26053;DHT22;13826;51.186;4.450;2023-02-22T09:42:38;8.50;99.90
26053;DHT22;13826;51.186;4.450;2023-02-22T09:45:18;8.70;99.90
26053;DHT22;13826;51.186;4.450;2023-02-22T09:47:51;8.70;99.90
26053;DHT22;13826;51.186;4.450;2023-02-22T09:50:20;8.70;99.90
26053;DHT22;13826;51.186;4.450;2023-02-22T09:52:50;8.60;99.90
26053;DHT22;13826;51.186;4.450;2023-02-22T09:55:32;8.80;99.90
26053;DHT22;13826;51.186;4.450;2023-02-22T09:58:00;9.10;99.90
26053;DHT22;13826;51.186;4.450;2023-02-22T10:00:36;9.00;99.90
26053;DHT22;13826;51.186;4.450;2023-02-22T10:05:41;9.50;99.90
26053;DHT22;13826;51.186;4.450;2023-02-22T10:08:12;9.80;99.90
26053;DHT22;13826;51.186;4.450;2023-02-22T10:10:39;9.90;99.90
26053;DHT22;13826;51.186;4.450;2023-02-22T10:20:41;10.20;99.90
26053;DHT22;13826;51.186;4.450;2023-02-22T10:23:19;10.20;99.90
26053;DHT22;13826;51.186;4.450;2023-02-22T10:25:51;10.40;99.90
26053;DHT22;13826;51.186;4.450;2023-02-22T10:28:22;10.70;99.90
26053;DHT22;13826;51.186;4.450;2023-02-22T10:33:19;10.90;99.90
26053;DHT22;13826;51.186;4.450;2023-02-22T10:35:46;11.00;99.90
26053;DHT22;13826;51.186;4.450;2023-02-22T10:40:49;10.80;99.90
26053;DHT22;13826;51.186;4.450;2023-02-22T10:43:15;10.80;99.90
26053;DHT22;13826;51.186;4.450;2023-02-22T10:45:40;10.90;99.90
26053;DHT22;13826;51.186;4.450;2023-02-22T10:48:08;11.10;99.90
26053;DHT22;13826;51.186;4.450;2023-02-22T10:50:37;11.10;99.90
26053;DHT22;13826;51.186;4.450;2023-02-22T10:53:04;11.20;99.90
26053;DHT22;13826;51.186;4.450;2023-02-22T10:55:29;11.40;99.90
26053;DHT22;13826;51.186;4.450;2023-02-22T10:57:59;11.50;99.90
26053;DHT22;13826;51.186;4.450;2023-02-22T11:03:04;11.30;99.90
26053;DHT22;13826;51.186;4.450;2023-02-22T11:05:32;11.40;99.90
26053;DHT22;13826;51.186;4.450;2023-02-22T11:08:12;11.60;99.90
26053;DHT22;13826;51.186;4.450;2023-02-22T11:10:39;11.90;99.90
26053;DHT22;13826;51.186;4.450;2023-02-22T11:15:43;12.80;94.50
26053;DHT22;13826;51.186;4.450;2023-02-22T11:18:23;13.40;85.00
26053;DHT22;13826;51.186;4.450;2023-02-22T11:20:49;13.50;75.50
26053;DHT22;13826;51.186;4.450;2023-02-22T11:23:23;13.30;86.20
26053;DHT22;13826;51.186;4.450;2023-02-22T11:25:49;13.30;87.20
26053;DHT22;13826;51.186;4.450;2023-02-22T11:28:19;13.20;90.40
26053;DHT22;13826;51.186;4.450;2023-02-22T11:30:55;13.20;89.20
26053;DHT22;13826;51.186;4.450;2023-02-22T11:33:22;13.00;91.50
26053;DHT22;13826;51.186;4.450;2023-02-22T11:35:49;12.80;95.20
26053;DHT22;13826;51.186;4.450;2023-02-22T11:38:26;12.80;96.50
26053;DHT22;13826;51.186;4.450;2023-02-22T11:41:06;12.70;98.50
26053;DHT22;13826;51.186;4.450;2023-02-22T11:43:32;12.80;97.40
26053;DHT22;13826;51.186;4.450;2023-02-22T11:46:00;12.80;97.20
26053;DHT22;13826;51.186;4.450;2023-02-22T11:48:27;12.60;99.40
26053;DHT22;13826;51.186;4.450;2023-02-22T11:56:14;12.40;99.90
26053;DHT22;13826;51.186;4.450;2023-02-22T12:01:35;12.40;99.90
26053;DHT22;13826;51.186;4.450;2023-02-22T12:11:41;12.70;99.90
26053;DHT22;13826;51.186;4.450;2023-02-22T12:19:36;12.90;99.90
26053;DHT22;13826;51.186;4.450;2023-02-22T12:22:07;13.00;97.80
26053;DHT22;13826;51.186;4.450;2023-02-22T12:24:35;13.30;96.70
26053;DHT22;13826;51.186;4.450;2023-02-22T12:27:09;13.50;93.50
26053;DHT22;13826;51.186;4.450;2023-02-22T12:29:43;13.70;93.20
26053;DHT22;13826;51.186;4.450;2023-02-22T12:32:16;13.80;93.30
26053;DHT22;13826;51.186;4.450;2023-02-22T12:34:44;13.90;93.40
26053;DHT22;13826;51.186;4.450;2023-02-22T12:42:44;13.70;94.70
26053;DHT22;13826;51.186;4.450;2023-02-22T12:45:12;13.80;94.80
26053;DHT22;13826;51.186;4.450;2023-02-22T12:47:45;13.70;94.10
26053;DHT22;13826;51.186;4.450;2023-02-22T12:50:23;13.70;94.20
26053;DHT22;13826;51.186;4.450;2023-02-22T12:53:34;13.70;95.00
26053;DHT22;13826;51.186;4.450;2023-02-22T12:55:46;13.60;94.90
26053;DHT22;13826;51.186;4.450;2023-02-22T12:58:32;13.70;92.00
26053;DHT22;13826;51.186;4.450;2023-02-22T13:01:02;13.90;91.90
26053;DHT22;13826;51.186;4.450;2023-02-22T13:05:58;13.60;94.50
26053;DHT22;13826;51.186;4.450;2023-02-22T13:08:31;13.50;93.90
26053;DHT22;13826;51.186;4.450;2023-02-22T13:23:51;13.60;96.90
26053;DHT22;13826;51.186;4.450;2023-02-22T13:28:54;13.10;99.00
26053;DHT22;13826;51.186;4.450;2023-02-22T13:47:19;13.00;99.90
26053;DHT22;13826;51.186;4.450;2023-02-22T13:52:33;13.00;99.90
26053;DHT22;13826;51.186;4.450;2023-02-22T13:55:06;12.90;99.90
26053;DHT22;13826;51.186;4.450;2023-02-22T13:57:37;13.00;99.90
26053;DHT22;13826;51.186;4.450;2023-02-22T14:03:09;12.90;99.90
26053;DHT22;13826;51.186;4.450;2023-02-22T14:13:07;12.90;99.90
26053;DHT22;13826;51.186;4.450;2023-02-22T14:15:33;13.00;99.90
26053;DHT22;13826;51.186;4.450;2023-02-22T14:18:03;12.80;99.90
26053;DHT22;13826;51.186;4.450;2023-02-22T14:20:33;12.50;99.90
26053;DHT22;13826;51.186;4.450;2023-02-22T14:25:44;12.50;99.90
26053;DHT22;13826;51.186;4.450;2023-02-22T14:31:04;12.50;99.90
26053;DHT22;13826;51.186;4.450;2023-02-22T14:36:14;12.00;99.90
26053;DHT22;13826;51.186;4.450;2023-02-22T14:38:42;12.00;99.90
26053;DHT22;13826;51.186;4.450;2023-02-22T14:41:08;11.90;99.90
26053;DHT22;13826;51.186;4.450;2023-02-22T14:43:35;11.80;99.90
26053;DHT22;13826;51.186;4.450;2023-02-22T14:46:03;11.70;99.90
26053;DHT22;13826;51.186;4.450;2023-02-22T14:48:36;11.60;99.90
26053;DHT22;13826;51.186;4.450;2023-02-22T14:51:20;11.50;99.90
26053;DHT22;13826;51.186;4.450;2023-02-22T14:53:53;11.50;99.90
26053;DHT22;13826;51.186;4.450;2023-02-22T14:56:22;11.30;99.90
26053;DHT22;13826;51.186;4.450;2023-02-22T14:58:50;11.30;99.90
26053;DHT22;13826;51.186;4.450;2023-02-22T15:03:47;11.40;99.90
26053;DHT22;13826;51.186;4.450;2023-02-22T15:06:20;11.30;99.90
26053;DHT22;13826;51.186;4.450;2023-02-22T15:08:47;11.30;99.90
26053;DHT22;13826;51.186;4.450;2023-02-22T15:11:24;11.20;99.90
26053;DHT22;13826;51.186;4.450;2023-02-22T15:13:50;11.00;99.90
26053;DHT22;13826;51.186;4.450;2023-02-22T15:16:16;10.90;99.90
26053;DHT22;13826;51.186;4.450;2023-02-22T15:18:42;10.70;99.90
26053;DHT22;13826;51.186;4.450;2023-02-22T15:21:11;10.60;99.90
26053;DHT22;13826;51.186;4.450;2023-02-22T15:23:41;10.70;99.90
26053;DHT22;13826;51.186;4.450;2023-02-22T15:26:14;10.60;99.90
26053;DHT22;13826;51.186;4.450;2023-02-22T15:28:40;10.50;99.90
26053;DHT22;13826;51.186;4.450;2023-02-22T15:31:13;10.50;99.90
26053;DHT22;13826;51.186;4.450;2023-02-22T15:33:39;10.60;99.90
26053;DHT22;13826;51.186;4.450;2023-02-22T15:36:04;10.60;99.90
26053;DHT22;13826;51.186;4.450;2023-02-22T15:38:30;10.80;99.90
26053;DHT22;13826;51.186;4.450;2023-02-22T15:41:03;10.70;99.90
26053;DHT22;13826;51.186;4.450;2023-02-22T15:43:29;10.60;99.90
26053;DHT22;13826;51.186;4.450;2023-02-22T15:45:56;10.70;99.90
26053;DHT22;13826;51.186;4.450;2023-02-22T15:48:23;10.70;99.90
26053;DHT22;13826;51.186;4.450;2023-02-22T15:50:58;10.60;99.90
26053;DHT22;13826;51.186;4.450;2023-02-22T15:53:25;10.50;99.90
26053;DHT22;13826;51.186;4.450;2023-02-22T15:55:56;10.50;99.90
26053;DHT22;13826;51.186;4.450;2023-02-22T15:58:22;10.50;99.90
26053;DHT22;13826;51.186;4.450;2023-02-22T16:01:02;10.70;99.90
26053;DHT22;13826;51.186;4.450;2023-02-22T16:06:14;10.80;99.90
26053;DHT22;13826;51.186;4.450;2023-02-22T16:08:48;10.80;99.90
26053;DHT22;13826;51.186;4.450;2023-02-22T16:11:20;10.70;99.90
26053;DHT22;13826;51.186;4.450;2023-02-22T16:13:50;10.70;99.90
26053;DHT22;13826;51.186;4.450;2023-02-22T16:18:45;10.80;99.90
26053;DHT22;13826;51.186;4.450;2023-02-22T16:21:20;10.70;99.90
26053;DHT22;13826;51.186;4.450;2023-02-22T16:26:26;10.70;99.90
26053;DHT22;13826;51.186;4.450;2023-02-22T16:29:01;10.70;99.90
26053;DHT22;13826;51.186;4.450;2023-02-22T16:31:31;10.80;99.90
26053;DHT22;13826;51.186;4.450;2023-02-22T16:34:01;10.70;99.90
26053;DHT22;13826;51.186;4.450;2023-02-22T16:36:37;10.60;99.90
26053;DHT22;13826;51.186;4.450;2023-02-22T16:39:04;10.60;99.90
26053;DHT22;13826;51.186;4.450;2023-02-22T16:41:31;10.60;99.90
26053;DHT22;13826;51.186;4.450;2023-02-22T16:43:57;10.50;99.90
26053;DHT22;13826;51.186;4.450;2023-02-22T16:46:22;10.50;99.90
26053;DHT22;13826;51.186;4.450;2023-02-22T16:48:48;10.60;99.90
26053;DHT22;13826;51.186;4.450;2023-02-22T16:51:16;10.60;99.90
26053;DHT22;13826;51.186;4.450;2023-02-22T16:53:42;10.70;99.90
26053;DHT22;13826;51.186;4.450;2023-02-22T16:56:08;10.70;99.90
26053;DHT22;13826;51.186;4.450;2023-02-22T16:58:37;10.50;99.90
26053;DHT22;13826;51.186;4.450;2023-02-22T17:01:03;10.50;99.90
26053;DHT22;13826;51.186;4.450;2023-02-22T17:03:29;10.50;99.90
26053;DHT22;13826;51.186;4.450;2023-02-22T17:05:56;10.50;99.90
26053;DHT22;13826;51.186;4.450;2023-02-22T17:08:21;10.50;99.90
26053;DHT22;13826;51.186;4.450;2023-02-22T17:10:48;10.60;99.90
26053;DHT22;13826;51.186;4.450;2023-02-22T17:13:17;10.50;99.90
26053;DHT22;13826;51.186;4.450;2023-02-22T17:15:44;10.50;99.90
26053;DHT22;13826;51.186;4.450;2023-02-22T17:18:10;10.50;99.90
26053;DHT22;13826;51.186;4.450;2023-02-22T17:20:38;10.60;99.90
26053;DHT22;13826;51.186;4.450;2023-02-22T17:23:05;10.60;99.90
26053;DHT22;13826;51.186;4.450;2023-02-22T17:25:39;10.60;99.90
26053;DHT22;13826;51.186;4.450;2023-02-22T17:28:05;10.50;99.90
26053;DHT22;13826;51.186;4.450;2023-02-22T17:30:31;10.50;99.90
26053;DHT22;13826;51.186;4.450;2023-02-22T17:32:57;10.60;99.90
26053;DHT22;13826;51.186;4.450;2023-02-22T17:35:31;10.70;99.90
26053;DHT22;13826;51.186;4.450;2023-02-22T17:37:58;10.70;99.90
26053;DHT22;13826;51.186;4.450;2023-02-22T17:40:25;10.70;99.90
26053;DHT22;13826;51.186;4.450;2023-02-22T17:42:50;10.60;99.90
26053;DHT22;13826;51.186;4.450;2023-02-22T17:45:22;10.60;99.90
26053;DHT22;13826;51.186;4.450;2023-02-22T17:47:48;10.60;99.90
26053;DHT22;13826;51.186;4.450;2023-02-22T17:50:14;10.60;99.90
26053;DHT22;13826;51.186;4.450;2023-02-22T17:52:40;10.60;99.90
26053;DHT22;13826;51.186;4.450;2023-02-22T17:55:07;10.70;99.90
26053;DHT22;13826;51.186;4.450;2023-02-22T17:57:33;10.70;99.90
26053;DHT22;13826;51.186;4.450;2023-02-22T17:59:59;10.80;99.90
26053;DHT22;13826;51.186;4.450;2023-02-22T18:02:25;10.60;99.90
26053;DHT22;13826;51.186;4.450;2023-02-22T18:04:50;10.70;99.90
26053;DHT22;13826;51.186;4.450;2023-02-22T18:07:16;10.70;99.90
26053;DHT22;13826;51.186;4.450;2023-02-22T18:09:44;10.60;99.90